KDLSKTTD

Guest
Details From KDLS - COLUMBIA GORGE RGNL THE DALLES MUNI
To KTTD - Portland Troutdale
Flight Number -
Tags generated
Created
Modified
Stats Distance 52 nm / 96 km
Max Altitude 4,600 ft / 1,402 m
Waypoints 3
Social Downloads 3
Likes 0
Share VATSIM

Download

Looking for another format? Having issues loading an existing format? Contact us
Advertisement - Login to hide

Notes

Basic altitude profile: - Ascent Rate: 2500ft/min - Ascent Speed: 250kts - Cruise Altitude: 35000ft - Cruise Speed: 420kts - Descent Rate: 1500ft/min - Descent Speed: 250kts Options: - Use NATs: yes - Use PACOTS: no - Use low airways: yes - Use high airways: no

Route

KDLS OGYAJ KTTD

ID Type Via Altitude Latitude Longitude Leg Dist Tot Dist Heading (true) Name
O KDLS APT - 0 ft / 0 m 45.61943˚ -121.16830˚ - 0 nm - COLUMBIA GORGE RGNL THE DALLES MUNI
OGYAJ FIX - 4,600 ft / 1,402 m 45.56400˚ -121.88124˚ 30 nm 30 nm 264° / 263° -
O KTTD APT - 0 ft / 0 m 45.54937˚ -122.40125˚ 21 nm 52 nm 268° / 268° Portland Troutdale

Altitude Profile

Advertisement - Login to hide

KDLS

Details ICAO KDLS
Name COLUMBIA GORGE RGNL THE DALLES MUNI
Region United States
Timezone America/Los_Angeles (UTC-8.0)
Stats Elevation 247 ft / 75 m (AMSL)
Location 45.619429° -121.168304°
Runways 2
Magnetic Variation 15.035° E

METAR

KDLS 111053Z AUTO 12008KT 10SM OVC024 01/M04 A3071 RMK AO2 SLP404 T00111039

Decode

TAF

KDLS 110534Z 1106/1206 11008KT P6SM OVC021

Decode

Departure Runways

ID Width Length Bearing (true) Bearing (mag) Surface Threshold Offset Overrun Length
07 100 ft / 30 m 4,635 ft / 1,413 m 87.98° 72.95° Asphalt 440 ft / 134 m 0 ft / 0 m
12 100 ft / 30 m 5,095 ft / 1,553 m 144.67° 129.64° Asphalt 200 ft / 61 m 0 ft / 0 m
25 100 ft / 30 m 4,635 ft / 1,413 m 267.99° 252.96° Asphalt 196 ft / 60 m 0 ft / 0 m
30 100 ft / 30 m 5,095 ft / 1,553 m 324.68° 309.65° Asphalt 0 ft / 0 m 0 ft / 0 m

KTTD

Details ICAO KTTD (TTD)
Name Portland Troutdale
Region United States
Timezone America/Los_Angeles (UTC-8.0)
Stats Elevation 39 ft / 12 m (AMSL)
Location 45.549366° -122.401252°
Runways 1
Magnetic Variation 15.252° E

METAR

KTTD 111053Z AUTO 08018G29KT 10SM CLR 03/M04 A3041 RMK AO2 PK WND 08032/1017 SLP298 T00331044

Decode

TAF

KTTD 110531Z 1106/1206 08026G39KT P6SM SCT250

Decode

Destination Runways

ID Width Length Bearing (true) Bearing (mag) Surface Threshold Offset Overrun Length
07 150 ft / 46 m 5,385 ft / 1,641 m 88.65° 73.40° Asphalt 0 ft / 0 m 0 ft / 0 m
25 150 ft / 46 m 5,385 ft / 1,641 m 268.67° 253.42° Asphalt 0 ft / 0 m 390 ft / 119 m